Admiralengracht — PCDE — position and weather

sailwx.info

Track history (hours):
 
Tides and Currents Weather Stations Pressure Air Temp Water Temp Dewpoint Dewpoint Depression Visibility Wind Speed Wind Dir Waves Ship Positions

Admiralengracht

Last reported at 2019-Jan-24 06:01 UTC. Time now 2019-Jan-24 06:10 UTC.
Position N 53°27' E 006°51'.

Length 130 m; beam 19 m; draft 9 m.

Type: Ship. MMSI: 244170283.

Date/timePositionNaut miles runAvg speedWind from/ knotsBaromVisibWave heightAir tempDewpointWater temp
2019-Jan-24 06:01N 53°27' E 006°51'1 2.1
2019-Jan-24 05:30N 53°28' E 006°50'4 7.4
2019-Jan-24 05:00N 53°31' E 006°47'  
2019-Jan-22 00:19N 53°33' E 006°02'1 2.8
2019-Jan-22 00:00N 53°33' E 006°00'2 5.0
2019-Jan-21 23:30N 53°34' E 006°04'2 4.9
2019-Jan-21 23:00N 53°35' E 006°08'3 5.0
2019-Jan-21 22:31N 53°35' E 006°12'3 5.0
2019-Jan-21 22:00N 53°36' E 006°16'2 4.8
2019-Jan-21 21:30N 53°37' E 006°20'2 4.8
2019-Jan-21 21:01N 53°39' E 006°20'2 4.1
2019-Jan-21 20:30N 53°41' E 006°21'2 4.6
2019-Jan-21 20:00N 53°42' E 006°25'2 4.5
2019-Jan-21 19:30N 53°42' E 006°28'2 4.4
2019-Jan-21 19:00N 53°43' E 006°32'2 4.4
2019-Jan-21 18:31N 53°44' E 006°35'2 4.4
2019-Jan-21 18:00N 53°44' E 006°39'1 2.2
2019-Jan-21 17:30N 53°44' E 006°37'4 0.6
2019-Jan-21 11:02N 53°43' E 006°30'1 4.2
2019-Jan-21 10:51N 53°43' E 006°29'1 4.3
2019-Jan-21 10:30N 53°42' E 006°27'2 4.4
2019-Jan-21 10:01N 53°42' E 006°23'2 4.4
2019-Jan-21 09:31N 53°41' E 006°20'2 3.6
2019-Jan-21 09:00N 53°42' E 006°22'2 4.2
2019-Jan-21 08:31N 53°42' E 006°26'2 4.0
2019-Jan-21 07:59N 53°43' E 006°29'2 4.0
2019-Jan-21 07:29N 53°43' E 006°33'2 4.0
2019-Jan-21 06:58N 53°44' E 006°36'1 1.4
2019-Jan-21 06:12N 53°44' E 006°38'1 4.7
2019-Jan-21 06:00N 53°44' E 006°36'2 4.6
2019-Jan-21 05:31N 53°43' E 006°32'2 4.3
2019-Jan-21 05:01N 53°43' E 006°29'2 4.3
2019-Jan-21 04:31N 53°42' E 006°25'2 4.1
2019-Jan-21 04:01N 53°42' E 006°22'2 3.7
2019-Jan-21 03:30N 53°41' E 006°19'2 3.9
2019-Jan-21 03:01N 53°42' E 006°22'2 4.0
2019-Jan-21 02:28N 53°42' E 006°26'13 0.7
2019-Jan-20 07:17N 53°33' E 006°41'1 0.4
2019-Jan-20 05:41N 53°33' E 006°41'1 0.0
2019-Jan-18 16:37N 53°32' E 006°43'1 4.7
2019-Jan-18 16:29N 53°32' E 006°44'2 4.1
2019-Jan-18 16:00N 53°31' E 006°47'2 3.6
2019-Jan-18 15:30N 53°30' E 006°49'2 3.2
2019-Jan-18 14:59N 53°31' E 006°47'3 0.4
2019-Jan-18 08:28N 53°32' E 006°43'2 5.1
2019-Jan-18 08:00N 53°31' E 006°46'2 4.5
2019-Jan-18 07:30N 53°30' E 006°49'0 0.5
2019-Jan-18 07:00N 53°29' E 006°49'1 2.0
2019-Jan-18 06:30N 53°30' E 006°48'2 4.0
2019-Jan-18 05:59N 53°31' E 006°45'2 1.1
2019-Jan-18 04:17N 53°33' E 006°43'1 3.8
2019-Jan-18 04:00N 53°32' E 006°44'2 3.5
2019-Jan-18 03:30N 53°31' E 006°47'2 3.7
2019-Jan-18 03:00N 53°30' E 006°49'1 2.5
2019-Jan-18 02:30N 53°30' E 006°47'0 0.9
2019-Jan-18 02:00N 53°30' E 006°48'2 4.2
2019-Jan-18 01:26N 53°32' E 006°45'2 0.9
2019-Jan-17 23:33N 53°33' E 006°43'0 4.5
2019-Jan-17 23:30N 53°33' E 006°43'2 4.9
2019-Jan-17 23:00N 53°31' E 006°46'2 4.6
2019-Jan-17 22:30N 53°30' E 006°49'1 2.9
2019-Jan-17 22:00N 53°30' E 006°47'1 2.0
2019-Jan-17 21:29N 53°31' E 006°46'3 1.5
2019-Jan-17 19:33N 53°33' E 006°42'0 0.1
2019-Jan-17 19:12N 53°33' E 006°42'0 1.7
2019-Jan-17 18:57N 53°33' E 006°43'1 2.5
2019-Jan-17 18:26N 53°32' E 006°45'2 3.7
2019-Jan-17 18:01N 53°31' E 006°47'0 0.2
2019-Jan-17 17:29N 53°31' E 006°47'2 4.5
2019-Jan-17 17:00N 53°29' E 006°49'1 2.2
2019-Jan-17 16:30N 53°28' E 006°50'1 1.3
2019-Jan-17 16:00N 53°29' E 006°49'0 0.8
2019-Jan-17 15:30N 53°29' E 006°49'1 1.8
2019-Jan-17 15:00N 53°30' E 006°48'0 0.9
2019-Jan-17 14:30N 53°30' E 006°49'0 0.7
2019-Jan-17 14:00N 53°30' E 006°48'0 0.7
2019-Jan-17 13:30N 53°30' E 006°49'0 0.1
2019-Jan-17 13:01N 53°30' E 006°49'2 3.5
2019-Jan-17 12:30N 53°31' E 006°47'1 2.2
2019-Jan-17 11:58N 53°31' E 006°45'1 1.3
2019-Jan-17 11:28N 53°31' E 006°46'1 2.3
2019-Jan-17 10:56N 53°32' E 006°44'1 1.5
2019-Jan-17 10:30N 53°32' E 006°45'0 0.8
2019-Jan-17 09:58N 53°32' E 006°44'2 3.9
2019-Jan-17 09:30N 53°31' E 006°47'1 2.5
2019-Jan-17 08:56N 53°31' E 006°45'34 1.7
2019-Jan-16 13:15N 53°30' E 005°49'2 8.1
2019-Jan-16 13:00N 53°30' E 005°45'5 8.2
2019-Jan-16 12:26N 53°31' E 005°38'4 8.4
2019-Jan-16 12:00N 53°30' E 005°32'4 8.6
2019-Jan-16 11:30N 53°29' E 005°25'4 8.6
2019-Jan-16 11:00N 53°27' E 005°18'4 8.6
2019-Jan-16 10:30N 53°25' E 005°12'4 8.7
2019-Jan-16 10:00N 53°24' E 005°05'4 8.2
2019-Jan-16 09:30N 53°22' E 004°58'2 3.5
2019-Jan-16 09:01N 53°21' E 004°57'2 4.1
2019-Jan-16 08:30N 53°19' E 004°60'3 5.4
2019-Jan-16 08:00N 53°19' E 005°04'3 7.0
2019-Jan-16 07:30N 53°19' E 005°10'4 7.8
2019-Jan-16 07:00N 53°15' E 005°10'4 7.6
2019-Jan-16 06:30N 53°14' E 005°16'3 6.8
2019-Jan-16 06:00N 53°11' E 005°20'3 5.8
2019-Jan-16 05:31N 53°10' E 005°24'1 2.8
2019-Jan-16 05:00N 53°11' E 005°26'0 0.0
2019-Jan-16 04:29N 53°11' E 005°26'0 0.0
2019-Jan-16 03:59N 53°11' E 005°26'0 0.0
2019-Jan-16 03:29N 53°11' E 005°26'0 0.0
2019-Jan-16 03:00N 53°11' E 005°26'0 0.0
2019-Jan-16 02:30N 53°11' E 005°26'0 0.0
2019-Jan-16 02:00N 53°11' E 005°26'0 0.0
2019-Jan-16 01:28N 53°11' E 005°26'0 0.0
2019-Jan-16 00:58N 53°11' E 005°26'0 0.0
2019-Jan-16 00:28N 53°11' E 005°26'0 0.0
2019-Jan-15 23:59N 53°11' E 005°26'0 0.0
2019-Jan-15 23:29N 53°11' E 005°26'0 0.0
2019-Jan-15 22:59N 53°11' E 005°26'0 0.0
2019-Jan-15 22:30N 53°11' E 005°26'0 0.0
2019-Jan-15 22:00N 53°11' E 005°26'0 0.0
2019-Jan-15 21:30N 53°11' E 005°26'0 0.0
2019-Jan-15 20:58N 53°11' E 005°26'0 0.0
2019-Jan-15 20:28N 53°11' E 005°26'0 0.0
2019-Jan-15 19:58N 53°11' E 005°26'0 0.0
2019-Jan-15 19:29N 53°11' E 005°26'0 0.0
2019-Jan-15 18:59N 53°11' E 005°26'0 0.0
2019-Jan-15 18:29N 53°11' E 005°26'0 0.0
2019-Jan-15 18:00N 53°11' E 005°26'0 0.0
2019-Jan-15 17:30N 53°11' E 005°26'0 0.0
2019-Jan-15 17:00N 53°11' E 005°26'0 0.0
2019-Jan-15 16:28N 53°11' E 005°26'0 0.0
2019-Jan-15 15:58N 53°11' E 005°26'0 0.0
2019-Jan-15 15:28N 53°11' E 005°26'0 0.0
2019-Jan-15 14:59N 53°11' E 005°26'0 0.0
2019-Jan-15 14:29N 53°11' E 005°26'0 0.0
2019-Jan-15 13:59N 53°11' E 005°26'0 0.0
2019-Jan-15 13:30N 53°11' E 005°26'0 0.0
2019-Jan-15 13:00N 53°11' E 005°26'0 0.0
2019-Jan-15 12:30N 53°11' E 005°26'0 0.0
2019-Jan-15 11:58N 53°11' E 005°26'0 0.0
2019-Jan-15 11:28N 53°11' E 005°26'0 0.0
2019-Jan-15 10:58N 53°11' E 005°26'0 0.0
2019-Jan-15 10:29N 53°11' E 005°26'0 0.0
2019-Jan-15 09:59N 53°11' E 005°26'0 0.0
2019-Jan-15 09:29N 53°11' E 005°26'0 0.0
2019-Jan-15 09:00N 53°11' E 005°26'0 0.0
2019-Jan-15 08:30N 53°11' E 005°26'0 0.0
2019-Jan-15 08:00N 53°11' E 005°26'0 0.0
2019-Jan-15 07:28N 53°11' E 005°26'0 0.0
2019-Jan-15 06:55N 53°11' E 005°26'0 0.0
2019-Jan-15 06:28N 53°11' E 005°26'0 0.0
2019-Jan-15 05:59N 53°11' E 005°26'0 0.0
2019-Jan-15 05:29N 53°11' E 005°26'0 0.0
2019-Jan-15 04:59N 53°11' E 005°26'0 0.0
2019-Jan-15 04:30N 53°11' E 005°26'0 0.0
2019-Jan-15 04:00N 53°11' E 005°26'0 0.0
2019-Jan-15 03:30N 53°11' E 005°26'0 0.0
2019-Jan-15 02:58N 53°11' E 005°26'0 0.0
2019-Jan-15 02:28N 53°11' E 005°26'0 0.0
2019-Jan-15 01:58N 53°11' E 005°26'0 0.0
2019-Jan-15 01:29N 53°11' E 005°26'0 0.0
2019-Jan-15 00:59N 53°11' E 005°26'0 0.0
2019-Jan-15 00:29N 53°11' E 005°26'0 0.0
2019-Jan-15 00:00N 53°11' E 005°26'0 0.0
2019-Jan-14 23:30N 53°11' E 005°26'0 0.0
2019-Jan-14 22:57N 53°11' E 005°26'0 0.0
2019-Jan-14 22:28N 53°11' E 005°26'0 0.0
2019-Jan-14 21:58N 53°11' E 005°26'0 0.0
2019-Jan-14 21:28N 53°11' E 005°26'0 0.0
2019-Jan-14 20:59N 53°11' E 005°26'0 0.0
2019-Jan-14 20:29N 53°11' E 005°26'0 0.0
2019-Jan-14 19:59N 53°11' E 005°26'0 0.0
2019-Jan-14 19:30N 53°11' E 005°26'0 0.0
2019-Jan-14 19:00N 53°11' E 005°26'0 0.0
2019-Jan-14 18:30N 53°11' E 005°26'0 0.0
2019-Jan-14 17:58N 53°11' E 005°26'0 0.0
2019-Jan-14 17:28N 53°11' E 005°26'0 0.0
2019-Jan-14 16:58N 53°11' E 005°26'0 0.0
2019-Jan-14 16:29N 53°11' E 005°26'0 0.0
2019-Jan-14 15:59N 53°11' E 005°26'0 0.0
2019-Jan-14 15:29N 53°11' E 005°26'0 0.0
2019-Jan-14 15:00N 53°11' E 005°26'0 0.0
2019-Jan-14 14:30N 53°11' E 005°26'0 0.0
2019-Jan-14 14:00N 53°11' E 005°26'0 0.0
2019-Jan-14 13:28N 53°11' E 005°26'0 0.0
2019-Jan-14 12:58N 53°11' E 005°26'0 0.0
2019-Jan-14 12:28N 53°11' E 005°26'0 0.0
2019-Jan-14 11:59N 53°11' E 005°26'0 0.0
2019-Jan-14 11:29N 53°11' E 005°26'0 0.0
2019-Jan-14 10:59N 53°11' E 005°26'0 0.0
2019-Jan-14 10:30N 53°11' E 005°26'0 0.0
2019-Jan-14 10:00N 53°11' E 005°26'0 0.0
2019-Jan-14 09:30N 53°11' E 005°26'0 0.0
2019-Jan-14 08:58N 53°11' E 005°26'0 0.0
2019-Jan-14 08:28N 53°11' E 005°26'0 0.0
2019-Jan-14 07:58N 53°11' E 005°26'0 0.0
2019-Jan-14 07:29N 53°11' E 005°26'0 0.0
2019-Jan-14 06:59N 53°11' E 005°26'0 0.0
2019-Jan-14 06:29N 53°11' E 005°26'  
Track history (hours):
 
Tides and Currents Weather Stations Pressure Air Temp Water Temp Dewpoint Dewpoint Depression Visibility Wind Speed Wind Dir Waves Ship Positions

Admiralengracht

Last reported at 2019-Jan-24 06:01 UTC. Time now 2019-Jan-24 06:10 UTC.
Position N 53°27' E 006°51'.

Length 130 m; beam 19 m; draft 9 m.

Type: Ship. MMSI: 244170283.

Date/timePositionNaut miles runAvg speedWind from/ knotsBaromVisibWave heightAir tempDewpointWater temp
2019-Jan-24 06:01N 53°27' E 006°51'1 2.1
2019-Jan-24 05:30N 53°28' E 006°50'4 7.4
2019-Jan-24 05:00N 53°31' E 006°47'  
2019-Jan-22 00:19N 53°33' E 006°02'1 2.8
2019-Jan-22 00:00N 53°33' E 006°00'2 5.0
2019-Jan-21 23:30N 53°34' E 006°04'2 4.9
2019-Jan-21 23:00N 53°35' E 006°08'3 5.0
2019-Jan-21 22:31N 53°35' E 006°12'3 5.0
2019-Jan-21 22:00N 53°36' E 006°16'2 4.8
2019-Jan-21 21:30N 53°37' E 006°20'2 4.8
2019-Jan-21 21:01N 53°39' E 006°20'2 4.1
2019-Jan-21 20:30N 53°41' E 006°21'2 4.6
2019-Jan-21 20:00N 53°42' E 006°25'2 4.5
2019-Jan-21 19:30N 53°42' E 006°28'2 4.4
2019-Jan-21 19:00N 53°43' E 006°32'2 4.4
2019-Jan-21 18:31N 53°44' E 006°35'2 4.4
2019-Jan-21 18:00N 53°44' E 006°39'1 2.2
2019-Jan-21 17:30N 53°44' E 006°37'4 0.6
2019-Jan-21 11:02N 53°43' E 006°30'1 4.2
2019-Jan-21 10:51N 53°43' E 006°29'1 4.3
2019-Jan-21 10:30N 53°42' E 006°27'2 4.4
2019-Jan-21 10:01N 53°42' E 006°23'2 4.4
2019-Jan-21 09:31N 53°41' E 006°20'2 3.6
2019-Jan-21 09:00N 53°42' E 006°22'2 4.2
2019-Jan-21 08:31N 53°42' E 006°26'2 4.0
2019-Jan-21 07:59N 53°43' E 006°29'2 4.0
2019-Jan-21 07:29N 53°43' E 006°33'2 4.0
2019-Jan-21 06:58N 53°44' E 006°36'1 1.4
2019-Jan-21 06:12N 53°44' E 006°38'1 4.7
2019-Jan-21 06:00N 53°44' E 006°36'2 4.6
2019-Jan-21 05:31N 53°43' E 006°32'2 4.3
2019-Jan-21 05:01N 53°43' E 006°29'2 4.3
2019-Jan-21 04:31N 53°42' E 006°25'2 4.1
2019-Jan-21 04:01N 53°42' E 006°22'2 3.7
2019-Jan-21 03:30N 53°41' E 006°19'2 3.9
2019-Jan-21 03:01N 53°42' E 006°22'2 4.0
2019-Jan-21 02:28N 53°42' E 006°26'13 0.7
2019-Jan-20 07:17N 53°33' E 006°41'1 0.4
2019-Jan-20 05:41N 53°33' E 006°41'1 0.0
2019-Jan-18 16:37N 53°32' E 006°43'1 4.7
2019-Jan-18 16:29N 53°32' E 006°44'2 4.1
2019-Jan-18 16:00N 53°31' E 006°47'2 3.6
2019-Jan-18 15:30N 53°30' E 006°49'2 3.2
2019-Jan-18 14:59N 53°31' E 006°47'3 0.4
2019-Jan-18 08:28N 53°32' E 006°43'2 5.1
2019-Jan-18 08:00N 53°31' E 006°46'2 4.5
2019-Jan-18 07:30N 53°30' E 006°49'0 0.5
2019-Jan-18 07:00N 53°29' E 006°49'1 2.0
2019-Jan-18 06:30N 53°30' E 006°48'2 4.0
2019-Jan-18 05:59N 53°31' E 006°45'2 1.1
2019-Jan-18 04:17N 53°33' E 006°43'1 3.8
2019-Jan-18 04:00N 53°32' E 006°44'2 3.5
2019-Jan-18 03:30N 53°31' E 006°47'2 3.7
2019-Jan-18 03:00N 53°30' E 006°49'1 2.5
2019-Jan-18 02:30N 53°30' E 006°47'0 0.9
2019-Jan-18 02:00N 53°30' E 006°48'2 4.2
2019-Jan-18 01:26N 53°32' E 006°45'2 0.9
2019-Jan-17 23:33N 53°33' E 006°43'0 4.5
2019-Jan-17 23:30N 53°33' E 006°43'2 4.9
2019-Jan-17 23:00N 53°31' E 006°46'2 4.6
2019-Jan-17 22:30N 53°30' E 006°49'1 2.9
2019-Jan-17 22:00N 53°30' E 006°47'1 2.0
2019-Jan-17 21:29N 53°31' E 006°46'3 1.5
2019-Jan-17 19:33N 53°33' E 006°42'0 0.1
2019-Jan-17 19:12N 53°33' E 006°42'0 1.7
2019-Jan-17 18:57N 53°33' E 006°43'1 2.5
2019-Jan-17 18:26N 53°32' E 006°45'2 3.7
2019-Jan-17 18:01N 53°31' E 006°47'0 0.2
2019-Jan-17 17:29N 53°31' E 006°47'2 4.5
2019-Jan-17 17:00N 53°29' E 006°49'1 2.2
2019-Jan-17 16:30N 53°28' E 006°50'1 1.3
2019-Jan-17 16:00N 53°29' E 006°49'0 0.8
2019-Jan-17 15:30N 53°29' E 006°49'1 1.8
2019-Jan-17 15:00N 53°30' E 006°48'0 0.9
2019-Jan-17 14:30N 53°30' E 006°49'0 0.7
2019-Jan-17 14:00N 53°30' E 006°48'0 0.7
2019-Jan-17 13:30N 53°30' E 006°49'0 0.1
2019-Jan-17 13:01N 53°30' E 006°49'2 3.5
2019-Jan-17 12:30N 53°31' E 006°47'1 2.2
2019-Jan-17 11:58N 53°31' E 006°45'1 1.3
2019-Jan-17 11:28N 53°31' E 006°46'1 2.3
2019-Jan-17 10:56N 53°32' E 006°44'1 1.5
2019-Jan-17 10:30N 53°32' E 006°45'0 0.8
2019-Jan-17 09:58N 53°32' E 006°44'2 3.9
2019-Jan-17 09:30N 53°31' E 006°47'1 2.5
2019-Jan-17 08:56N 53°31' E 006°45'34 1.7
2019-Jan-16 13:15N 53°30' E 005°49'2 8.1
2019-Jan-16 13:00N 53°30' E 005°45'5 8.2
2019-Jan-16 12:26N 53°31' E 005°38'4 8.4
2019-Jan-16 12:00N 53°30' E 005°32'4 8.6
2019-Jan-16 11:30N 53°29' E 005°25'4 8.6
2019-Jan-16 11:00N 53°27' E 005°18'4 8.6
2019-Jan-16 10:30N 53°25' E 005°12'4 8.7
2019-Jan-16 10:00N 53°24' E 005°05'4 8.2
2019-Jan-16 09:30N 53°22' E 004°58'2 3.5
2019-Jan-16 09:01N 53°21' E 004°57'2 4.1
2019-Jan-16 08:30N 53°19' E 004°60'3 5.4
2019-Jan-16 08:00N 53°19' E 005°04'3 7.0
2019-Jan-16 07:30N 53°19' E 005°10'4 7.8
2019-Jan-16 07:00N 53°15' E 005°10'4 7.6
2019-Jan-16 06:30N 53°14' E 005°16'3 6.8
2019-Jan-16 06:00N 53°11' E 005°20'3 5.8
2019-Jan-16 05:31N 53°10' E 005°24'1 2.8
2019-Jan-16 05:00N 53°11' E 005°26'0 0.0
2019-Jan-16 04:29N 53°11' E 005°26'0 0.0
2019-Jan-16 03:59N 53°11' E 005°26'0 0.0
2019-Jan-16 03:29N 53°11' E 005°26'0 0.0
2019-Jan-16 03:00N 53°11' E 005°26'0 0.0
2019-Jan-16 02:30N 53°11' E 005°26'0 0.0
2019-Jan-16 02:00N 53°11' E 005°26'0 0.0
2019-Jan-16 01:28N 53°11' E 005°26'0 0.0
2019-Jan-16 00:58N 53°11' E 005°26'0 0.0
2019-Jan-16 00:28N 53°11' E 005°26'0 0.0
2019-Jan-15 23:59N 53°11' E 005°26'0 0.0
2019-Jan-15 23:29N 53°11' E 005°26'0 0.0
2019-Jan-15 22:59N 53°11' E 005°26'0 0.0
2019-Jan-15 22:30N 53°11' E 005°26'0 0.0
2019-Jan-15 22:00N 53°11' E 005°26'0 0.0
2019-Jan-15 21:30N 53°11' E 005°26'0 0.0
2019-Jan-15 20:58N 53°11' E 005°26'0 0.0
2019-Jan-15 20:28N 53°11' E 005°26'0 0.0
2019-Jan-15 19:58N 53°11' E 005°26'0 0.0
2019-Jan-15 19:29N 53°11' E 005°26'0 0.0
2019-Jan-15 18:59N 53°11' E 005°26'0 0.0
2019-Jan-15 18:29N 53°11' E 005°26'0 0.0
2019-Jan-15 18:00N 53°11' E 005°26'0 0.0
2019-Jan-15 17:30N 53°11' E 005°26'0 0.0
2019-Jan-15 17:00N 53°11' E 005°26'0 0.0
2019-Jan-15 16:28N 53°11' E 005°26'0 0.0
2019-Jan-15 15:58N 53°11' E 005°26'0 0.0
2019-Jan-15 15:28N 53°11' E 005°26'0 0.0
2019-Jan-15 14:59N 53°11' E 005°26'0 0.0
2019-Jan-15 14:29N 53°11' E 005°26'0 0.0
2019-Jan-15 13:59N 53°11' E 005°26'0 0.0
2019-Jan-15 13:30N 53°11' E 005°26'0 0.0
2019-Jan-15 13:00N 53°11' E 005°26'0 0.0
2019-Jan-15 12:30N 53°11' E 005°26'0 0.0
2019-Jan-15 11:58N 53°11' E 005°26'0 0.0
2019-Jan-15 11:28N 53°11' E 005°26'0 0.0
2019-Jan-15 10:58N 53°11' E 005°26'0 0.0
2019-Jan-15 10:29N 53°11' E 005°26'0 0.0
2019-Jan-15 09:59N 53°11' E 005°26'0 0.0
2019-Jan-15 09:29N 53°11' E 005°26'0 0.0
2019-Jan-15 09:00N 53°11' E 005°26'0 0.0
2019-Jan-15 08:30N 53°11' E 005°26'0 0.0
2019-Jan-15 08:00N 53°11' E 005°26'0 0.0
2019-Jan-15 07:28N 53°11' E 005°26'0 0.0
2019-Jan-15 06:55N 53°11' E 005°26'0 0.0
2019-Jan-15 06:28N 53°11' E 005°26'0 0.0
2019-Jan-15 05:59N 53°11' E 005°26'0 0.0
2019-Jan-15 05:29N 53°11' E 005°26'0 0.0
2019-Jan-15 04:59N 53°11' E 005°26'0 0.0
2019-Jan-15 04:30N 53°11' E 005°26'0 0.0
2019-Jan-15 04:00N 53°11' E 005°26'0 0.0
2019-Jan-15 03:30N 53°11' E 005°26'0 0.0
2019-Jan-15 02:58N 53°11' E 005°26'0 0.0
2019-Jan-15 02:28N 53°11' E 005°26'0 0.0
2019-Jan-15 01:58N 53°11' E 005°26'0 0.0
2019-Jan-15 01:29N 53°11' E 005°26'0 0.0
2019-Jan-15 00:59N 53°11' E 005°26'0 0.0
2019-Jan-15 00:29N 53°11' E 005°26'0 0.0
2019-Jan-15 00:00N 53°11' E 005°26'0 0.0
2019-Jan-14 23:30N 53°11' E 005°26'0 0.0
2019-Jan-14 22:57N 53°11' E 005°26'0 0.0
2019-Jan-14 22:28N 53°11' E 005°26'0 0.0
2019-Jan-14 21:58N 53°11' E 005°26'0 0.0
2019-Jan-14 21:28N 53°11' E 005°26'0 0.0
2019-Jan-14 20:59N 53°11' E 005°26'0 0.0
2019-Jan-14 20:29N 53°11' E 005°26'0 0.0
2019-Jan-14 19:59N 53°11' E 005°26'0 0.0
2019-Jan-14 19:30N 53°11' E 005°26'0 0.0
2019-Jan-14 19:00N 53°11' E 005°26'0 0.0
2019-Jan-14 18:30N 53°11' E 005°26'0 0.0
2019-Jan-14 17:58N 53°11' E 005°26'0 0.0
2019-Jan-14 17:28N 53°11' E 005°26'0 0.0
2019-Jan-14 16:58N 53°11' E 005°26'0 0.0
2019-Jan-14 16:29N 53°11' E 005°26'0 0.0
2019-Jan-14 15:59N 53°11' E 005°26'0 0.0
2019-Jan-14 15:29N 53°11' E 005°26'0 0.0
2019-Jan-14 15:00N 53°11' E 005°26'0 0.0
2019-Jan-14 14:30N 53°11' E 005°26'0 0.0
2019-Jan-14 14:00N 53°11' E 005°26'0 0.0
2019-Jan-14 13:28N 53°11' E 005°26'0 0.0
2019-Jan-14 12:58N 53°11' E 005°26'0 0.0
2019-Jan-14 12:28N 53°11' E 005°26'0 0.0
2019-Jan-14 11:59N 53°11' E 005°26'0 0.0
2019-Jan-14 11:29N 53°11' E 005°26'0 0.0
2019-Jan-14 10:59N 53°11' E 005°26'0 0.0
2019-Jan-14 10:30N 53°11' E 005°26'0 0.0
2019-Jan-14 10:00N 53°11' E 005°26'0 0.0
2019-Jan-14 09:30N 53°11' E 005°26'0 0.0
2019-Jan-14 08:58N 53°11' E 005°26'0 0.0
2019-Jan-14 08:28N 53°11' E 005°26'0 0.0
2019-Jan-14 07:58N 53°11' E 005°26'0 0.0
2019-Jan-14 07:29N 53°11' E 005°26'0 0.0
2019-Jan-14 06:59N 53°11' E 005°26'0 0.0
2019-Jan-14 06:29N 53°11' E 005°26'  

Dump ship's entire track history